Time;durP1;ratioP1;P1;durP2;ratioP2;P2;SDS_P1;SDS_P2;PMS_P1;PMS_P2;Temp;Humidity;BMP_temperature;BMP_pressure;BME280_temperature;BME280_humidity;BME280_pressure;Samples;Min_cycle;Max_cycle;Signal;HPM_P1;HPM_P2
2022/04/01 00:00:33;;;;;;;3.15;1.98;;;;;;;1.74;100.00;99450.44;5966398;29;20064;-88
2022/04/01 00:03:35;;;;;;;4.60;2.30;;;;;;;1.85;100.00;99460.81;5956375;29;20047;-89
2022/04/01 00:06:37;;;;;;;5.97;3.50;;;;;;;1.76;100.00;99465.63;5955512;29;20051;-89
2022/04/01 00:09:39;;;;;;;4.93;2.20;;;;;;;1.77;100.00;99465.56;5947745;29;20047;-88
2022/04/01 00:12:42;;;;;;;4.47;3.05;;;;;;;1.59;100.00;99456.44;5957917;29;20501;-87
2022/04/01 00:15:44;;;;;;;5.60;2.65;;;;;;;1.48;100.00;99457.88;5958390;29;20236;-88
2022/04/01 00:18:46;;;;;;;3.65;2.30;;;;;;;1.51;100.00;99465.34;5970169;29;20049;-89
2022/04/01 00:21:48;;;;;;;4.07;2.72;;;;;;;1.48;100.00;99457.88;5957486;29;20058;-88
2022/04/01 00:24:50;;;;;;;4.47;2.58;;;;;;;1.48;100.00;99459.63;5957719;29;20062;-88
2022/04/01 00:27:52;;;;;;;5.53;2.80;;;;;;;1.42;100.00;99460.81;5969823;29;20042;-87
2022/04/01 00:30:54;;;;;;;6.10;3.22;;;;;;;1.39;100.00;99465.25;5964531;29;20046;-87
2022/04/01 00:34:15;;;;;;;4.50;2.63;;;;;;;1.24;100.00;99460.16;5976815;29;20501;-87
2022/04/01 00:37:17;;;;;;;4.78;2.72;;;;;;;1.09;100.00;99461.00;5975746;29;20058;-87
2022/04/01 00:40:20;;;;;;;6.72;3.08;;;;;;;1.17;100.00;99474.16;5961518;29;20059;-87
2022/04/01 00:43:30;;;;;;;3.83;2.75;;;;;;;1.21;100.00;99467.13;5963197;29;20398;-87
2022/04/01 00:46:32;;;;;;;4.25;3.03;;;;;;;1.08;100.00;99467.84;5978024;29;20699;-88
2022/04/01 00:49:34;;;;;;;6.93;3.70;;;;;;;1.04;100.00;99480.84;5956291;29;20413;-88
2022/04/01 00:52:37;;;;;;;4.68;3.00;;;;;;;0.98;100.00;99481.19;5940842;29;20059;-88
2022/04/01 00:55:40;;;;;;;5.35;3.63;;;;;;;0.97;100.00;99490.56;5968580;29;20047;-89
2022/04/01 00:58:43;;;;;;;4.88;3.50;;;;;;;0.97;100.00;99489.72;5967792;29;20050;-89
2022/04/01 01:01:45;;;;;;;7.28;3.38;;;;;;;0.92;100.00;99492.56;5942742;29;20051;-89
2022/04/01 01:04:47;;;;;;;4.43;3.13;;;;;;;0.74;100.00;99501.19;5960340;29;20424;-90
2022/04/01 01:07:49;;;;;;;5.65;3.38;;;;;;;0.80;100.00;99493.22;5964017;29;20063;-90
2022/04/01 01:10:51;;;;;;;4.10;2.97;;;;;;;0.72;100.00;99498.75;5967509;29;20055;-90
2022/04/01 01:13:54;;;;;;;6.72;3.75;;;;;;;0.66;100.00;99498.25;5956137;29;20038;-91
2022/04/01 01:16:58;;;;;;;4.55;3.30;;;;;;;0.58;100.00;99488.50;5941932;29;20063;-92
2022/04/01 01:20:00;;;;;;;3.97;2.92;;;;;;;0.60;100.00;99489.25;5961322;29;20525;-91
2022/04/01 01:23:03;;;;;;;6.45;3.90;;;;;;;0.67;100.00;99492.25;5961950;29;20058;-91
2022/04/01 01:26:07;;;;;;;4.97;3.40;;;;;;;0.63;100.00;99491.59;5971992;29;20047;-91
2022/04/01 01:29:10;;;;;;;5.35;3.92;;;;;;;0.59;100.00;99488.38;5977776;29;20122;-91
2022/04/01 01:32:17;;;;;;;4.25;3.00;;;;;;;0.57;100.00;99489.38;5989365;29;20556;-91
2022/04/01 01:35:19;;;;;;;4.82;2.90;;;;;;;0.63;100.00;99497.50;5970017;29;20126;-91
2022/04/01 01:38:21;;;;;;;5.10;3.20;;;;;;;0.49;100.00;99488.97;5965562;29;20050;-91
2022/04/01 01:41:25;;;;;;;5.75;4.00;;;;;;;0.45;100.00;99495.13;5982725;29;20039;-90
2022/04/01 01:44:29;;;;;;;8.02;3.95;;;;;;;0.49;100.00;99491.53;5970013;29;20066;-90
2022/04/01 01:47:31;;;;;;;5.88;3.25;;;;;;;0.38;100.00;99490.38;5989992;29;20383;-90
2022/04/01 01:57:24;;;;;;;5.03;3.47;;;;;;;0.36;100.00;99497.28;5970094;29;19928;-89
2022/04/01 02:00:27;;;;;;;5.90;3.83;;;;;;;0.40;100.00;99495.41;5975206;29;20054;-89
2022/04/01 02:03:29;;;;;;;5.85;3.90;;;;;;;0.36;100.00;99497.28;5952673;29;20057;-89
2022/04/01 02:06:33;;;;;;;5.80;3.75;;;;;;;0.40;100.00;99492.88;5966149;29;20240;-89
2022/04/01 02:09:34;;;;;;;7.22;3.65;;;;;;;0.45;100.00;99498.53;5962894;29;21026;-89
2022/04/01 02:12:37;;;;;;;5.22;3.58;;;;;;;0.28;100.00;99503.69;5955509;29;20433;-89
2022/04/01 02:15:38;;;;;;;9.25;4.07;;;;;;;0.25;100.00;99499.59;5958533;29;20051;-89
2022/04/01 02:18:44;;;;;;;6.68;3.63;;;;;;;0.38;100.00;99499.75;5953838;29;20070;-89
2022/04/01 02:21:47;;;;;;;6.50;4.00;;;;;;;0.29;100.00;99495.97;5954738;29;20065;-89
2022/04/01 02:24:50;;;;;;;4.55;3.60;;;;;;;0.30;100.00;99497.63;5961593;29;20054;-89
2022/04/01 02:27:53;;;;;;;5.28;3.85;;;;;;;0.35;100.00;99500.75;5948647;29;20051;-88
2022/04/01 02:30:55;;;;;;;6.28;3.50;;;;;;;0.37;100.00;99498.94;5948906;29;20042;-88
2022/04/01 02:34:20;;;;;;;5.03;3.58;;;;;;;0.26;100.00;99495.31;5955071;29;20062;-88
2022/04/01 02:37:25;;;;;;;5.28;3.60;;;;;;;0.27;100.00;99505.38;5947117;29;20055;-86
2022/04/01 02:40:29;;;;;;;5.88;3.42;;;;;;;0.17;100.00;99506.78;5949680;29;20180;-86
2022/04/01 02:43:32;;;;;;;6.43;3.85;;;;;;;0.24;100.00;99502.19;5950591;29;20066;-86
2022/04/01 02:46:42;;;;;;;9.07;4.10;;;;;;;0.13;100.00;99503.59;5950960;29;20054;-86
2022/04/01 02:49:44;;;;;;;5.95;3.85;;;;;;;0.19;100.00;99508.34;5954726;29;20054;-86
2022/04/01 02:52:46;;;;;;;5.20;4.20;;;;;;;0.25;100.00;99512.31;5964945;29;20138;-86
2022/04/01 02:55:48;;;;;;;5.32;3.60;;;;;;;0.06;100.00;99516.72;5971591;29;20504;-86
2022/04/01 02:58:51;;;;;;;5.03;3.50;;;;;;;0.10;100.00;99516.47;5965144;29;20484;-86
2022/04/01 03:01:55;;;;;;;4.95;3.83;;;;;;;0.14;100.00;99515.41;5950920;29;20054;-86
2022/04/01 03:05:00;;;;;;;4.65;3.00;;;;;;;0.19;100.00;99533.78;5967530;29;20050;-86
2022/04/01 03:08:05;;;;;;;4.97;3.28;;;;;;;0.14;100.00;99528.13;5957058;29;20698;-86
2022/04/01 03:11:07;;;;;;;6.32;3.60;;;;;;;0.11;100.00;99527.47;5951547;29;20470;-87
2022/04/01 03:14:11;;;;;;;5.28;3.38;;;;;;;0.04;100.00;99516.78;5967937;29;20059;-87
2022/04/01 03:17:39;;;;;;;5.28;3.72;;;;;;;0.04;100.00;99516.78;5897702;30;20056;-87
2022/04/01 03:20:58;;;;;;;6.82;3.88;;;;;;;0.03;100.00;99524.50;5886806;30;20044;-87
2022/04/01 03:24:01;;;;;;;5.43;3.50;;;;;;;0.09;100.00;99532.63;5912028;30;20052;-87
2022/04/01 03:27:05;;;;;;;6.35;3.60;;;;;;;0.01;100.00;99527.13;5888021;30;20052;-87
2022/04/01 03:30:10;;;;;;;7.55;3.88;;;;;;;0.11;100.00;99528.28;5903330;30;20052;-87
2022/04/01 03:33:12;;;;;;;5.53;3.60;;;;;;;0.05;100.00;99536.25;5886140;30;20533;-87
2022/04/01 03:36:14;;;;;;;5.60;3.30;;;;;;;-0.02;100.00;99532.38;5887088;30;20794;-87
2022/04/01 03:39:24;;;;;;;5.63;3.53;;;;;;;0.04;100.00;99533.78;5916706;30;20060;-87
2022/04/01 03:42:34;;;;;;;6.40;3.58;;;;;;;0.02;100.00;99549.09;5889126;30;20059;-87
2022/04/01 03:45:37;;;;;;;7.88;3.70;;;;;;;0.00;100.00;99545.84;5888943;30;20600;-87
2022/04/01 03:49:07;;;;;;;6.32;3.90;;;;;;;-0.04;100.00;99539.25;5901086;30;20052;-88
2022/04/01 03:52:11;;;;;;;4.72;3.75;;;;;;;-0.03;100.00;99541.69;5882394;30;20115;-88
2022/04/01 03:55:15;;;;;;;6.45;4.38;;;;;;;-0.03;100.00;99549.34;5967883;29;20062;-87
2022/04/01 03:58:49;;;;;;;5.57;4.20;;;;;;;0.01;100.00;99557.66;5972492;29;20046;-88
2022/04/01 04:02:12;;;;;;;6.07;3.95;;;;;;;-0.08;100.00;99553.03;5953151;29;20153;-88
2022/04/01 04:05:18;;;;;;;5.32;3.63;;;;;;;-0.06;100.00;99551.22;5962362;29;20058;-89
2022/04/01 04:08:22;;;;;;;6.93;4.10;;;;;;;-0.09;100.00;99549.66;5976125;29;20049;-88
2022/04/01 04:11:25;;;;;;;8.45;4.63;;;;;;;-0.03;100.00;99551.88;5959698;29;20042;-88
2022/04/01 04:14:40;;;;;;;5.28;3.63;;;;;;;-0.08;100.00;99558.09;5954790;29;20166;-89
2022/04/01 04:17:54;;;;;;;7.53;3.92;;;;;;;-0.08;100.00;99558.91;5965962;29;20052;-89
2022/04/01 04:21:31;;;;;;;6.47;4.25;;;;;;;-0.12;100.00;99561.72;5966475;29;20540;-89
2022/04/01 04:25:10;;;;;;;5.93;3.50;;;;;;;-0.09;100.00;99564.91;5970421;29;20517;-89
2022/04/01 04:28:22;;;;;;;4.57;3.47;;;;;;;-0.14;100.00;99566.88;5941613;29;20054;-89
2022/04/01 04:31:30;;;;;;;6.40;3.67;;;;;;;-0.05;100.00;99570.66;5959676;29;20051;-89
2022/04/01 04:34:44;;;;;;;5.40;3.60;;;;;;;-0.15;100.00;99575.41;5967656;29;20059;-88
2022/04/01 04:37:56;;;;;;;6.30;3.22;;;;;;;-0.12;100.00;99572.72;5943941;29;20047;-88
2022/04/01 04:40:58;;;;;;;5.80;3.60;;;;;;;-0.08;100.00;99584.34;5970704;29;20047;-88
2022/04/01 04:44:01;;;;;;;4.75;2.90;;;;;;;-0.07;100.00;99587.75;5951207;29;20511;-89
2022/04/01 04:47:08;;;;;;;3.78;2.95;;;;;;;-0.11;100.00;99592.16;5955509;29;20384;-88
2022/04/01 04:50:11;;;;;;;5.15;3.38;;;;;;;-0.08;100.00;99588.63;5958515;29;20054;-89
2022/04/01 04:53:19;;;;;;;5.15;3.33;;;;;;;-0.08;100.00;99591.19;5956555;29;20054;-89
2022/04/01 04:56:23;;;;;;;7.75;3.85;;;;;;;-0.20;100.00;99600.22;5961329;29;20799;-88
2022/04/01 04:59:26;;;;;;;6.22;3.45;;;;;;;-0.12;100.00;99600.69;5957629;29;20103;-88
2022/04/01 05:03:12;;;;;;;5.68;3.72;;;;;;;-0.11;100.00;99604.06;5957806;29;20035;-88
2022/04/01 05:06:17;;;;;;;4.78;3.70;;;;;;;-0.12;100.00;99615.13;5956837;29;20622;-88
2022/04/01 05:10:02;;;;;;;7.40;3.47;;;;;;;-0.08;100.00;99621.69;5957510;29;20051;-88
2022/04/01 05:13:42;;;;;;;5.57;3.38;;;;;;;-0.17;100.00;99622.13;5959228;29;20083;-88
2022/04/01 05:17:11;;;;;;;6.43;3.58;;;;;;;-0.14;100.00;99619.47;5960922;29;20121;-88
2022/04/01 05:20:24;;;;;;;6.45;3.92;;;;;;;-0.13;100.00;99634.63;5963728;29;20061;-87
2022/04/01 05:23:55;;;;;;;11.68;4.68;;;;;;;-0.01;100.00;99625.59;5981245;29;20145;-87
2022/04/01 05:27:00;;;;;;;5.28;3.80;;;;;;;-0.07;100.00;99625.91;5937456;29;20131;-88
2022/04/01 05:30:23;;;;;;;6.18;3.38;;;;;;;-0.08;100.00;99630.16;5942707;29;20066;-87
2022/04/01 05:33:58;;;;;;;5.43;3.33;;;;;;;-0.15;100.00;99640.69;5957342;29;20062;-87
2022/04/01 05:37:02;;;;;;;7.43;3.80;;;;;;;-0.08;100.00;99640.31;5958000;29;20042;-87
2022/04/01 05:40:07;;;;;;;6.03;3.85;;;;;;;-0.03;100.00;99645.19;5956202;29;20047;-87
2022/04/01 05:43:14;;;;;;;4.82;3.53;;;;;;;-0.07;100.00;99651.34;5945148;29;20112;-88
2022/04/01 05:46:25;;;;;;;5.63;3.55;;;;;;;-0.03;100.00;99655.34;5957119;29;20524;-87
2022/04/01 05:49:36;;;;;;;9.35;4.30;;;;;;;-0.03;100.00;99663.00;5971867;29;20055;-87
2022/04/01 05:52:40;;;;;;;6.88;3.85;;;;;;;-0.03;100.00;99661.25;5939657;29;20054;-87
2022/04/01 05:55:42;;;;;;;6.43;4.13;;;;;;;-0.07;100.00;99666.59;5954827;29;20063;-88
2022/04/01 05:58:44;;;;;;;6.22;3.67;;;;;;;-0.02;100.00;99675.66;5971680;29;20142;-88
2022/04/01 06:01:52;;;;;;;8.82;3.95;;;;;;;-0.12;100.00;99671.09;5953605;29;20039;-88
2022/04/01 06:05:14;;;;;;;5.10;3.42;;;;;;;-0.03;100.00;99673.97;5953077;29;20046;-87
2022/04/01 06:08:16;;;;;;;;;;;;;;;-0.05;100.00;99674.97;5975499;29;20098;-87
2022/04/01 06:11:52;;;;;;;10.25;4.32;;;;;;;0.00;100.00;99680.66;5966998;29;20412;-86
2022/04/01 06:15:18;;;;;;;7.15;4.13;;;;;;;0.07;100.00;99679.44;5946295;29;20093;-86
2022/04/01 06:18:38;;;;;;;5.80;3.83;;;;;;;0.04;100.00;99678.78;5938513;29;20062;-87
2022/04/01 06:22:18;;;;;;;6.03;3.58;;;;;;;0.03;100.00;99692.41;5970148;29;20062;-87
2022/04/01 06:25:29;;;;;;;6.00;3.90;;;;;;;0.15;100.00;99686.69;5947068;29;20531;-87
2022/04/01 06:28:39;;;;;;;6.50;3.88;;;;;;;0.15;100.00;99697.72;5965913;29;20131;-86
2022/04/01 06:31:48;;;;;;;6.77;3.50;;;;;;;0.18;100.00;99696.75;5963679;29;20058;-86
2022/04/01 06:35:19;;;;;;;8.18;4.28;;;;;;;0.19;100.00;99701.75;5945325;29;20433;-86
2022/04/01 06:38:51;;;;;;;6.72;3.88;;;;;;;0.25;100.00;99704.88;5960034;29;20058;-86
2022/04/01 06:41:59;;;;;;;8.35;4.05;;;;;;;0.31;100.00;99717.31;5946404;29;20051;-86
2022/04/01 06:45:20;;;;;;;6.65;3.60;;;;;;;0.29;100.00;99711.47;5956208;29;20621;-86
2022/04/01 06:48:41;;;;;;;6.43;3.92;;;;;;;0.33;100.00;99715.53;5958583;29;20055;-87
2022/04/01 06:52:03;;;;;;;6.50;4.03;;;;;;;0.29;100.00;99714.84;5897804;30;20088;-86
2022/04/01 06:55:24;;;;;;;;;;;;;;;0.34;100.00;99720.53;5886324;30;20435;-86
2022/04/01 06:58:33;;;;;;;5.80;3.55;;;;;;;0.43;100.00;99720.06;5893312;30;20096;-87
2022/04/01 07:01:38;;;;;;;8.00;3.85;;;;;;;0.41;100.00;99709.13;5884817;30;20096;-87
2022/04/01 07:04:40;;;;;;;8.07;4.32;;;;;;;0.59;100.00;99724.38;5899343;30;20517;-87
2022/04/01 07:07:42;;;;;;;8.20;4.80;;;;;;;0.58;100.00;99728.66;5886139;30;20220;-87
2022/04/01 07:10:45;;;;;;;5.72;3.63;;;;;;;0.66;100.00;99738.47;5881109;30;20134;-87
2022/04/01 07:13:47;;;;;;;6.15;3.67;;;;;;;0.70;100.00;99734.03;5881016;30;20056;-88
2022/04/01 07:16:49;;;;;;;7.05;3.80;;;;;;;0.76;100.00;99743.91;5885639;30;20151;-88
2022/04/01 07:19:52;;;;;;;6.55;3.95;;;;;;;0.87;100.00;99739.09;5883260;30;20523;-88
2022/04/01 07:22:53;;;;;;;9.30;4.13;;;;;;;0.94;100.00;99742.94;5880874;30;20121;-89
2022/04/01 07:25:55;;;;;;;5.03;3.53;;;;;;;0.96;100.00;99743.69;5883065;30;20054;-88
2022/04/01 07:28:57;;;;;;;7.57;3.85;;;;;;;0.99;100.00;99746.06;5925886;29;20090;-89
2022/04/01 07:32:29;;;;;;;8.13;3.60;;;;;;;1.10;100.00;99747.28;5941002;29;20130;-89
2022/04/01 07:35:31;;;;;;;6.57;4.03;;;;;;;1.16;100.00;99759.69;5954642;29;20059;-89
2022/04/01 07:38:35;;;;;;;6.22;3.38;;;;;;;1.21;100.00;99750.06;5943969;29;20576;-88
2022/04/01 07:41:37;;;;;;;8.65;3.95;;;;;;;1.23;100.00;99755.91;5956926;29;20401;-88
2022/04/01 07:44:39;;;;;;;7.47;4.13;;;;;;;1.43;100.00;99759.94;5966686;29;20503;-87
2022/04/01 07:47:44;;;;;;;7.38;4.22;;;;;;;1.66;100.00;99768.91;5946481;29;20059;-87
2022/04/01 07:50:46;;;;;;;6.30;4.35;;;;;;;1.84;100.00;99761.97;5942837;29;20119;-87
2022/04/01 07:53:48;;;;;;;7.18;3.63;;;;;;;2.09;100.00;99774.22;5950860;29;20180;-87
2022/04/01 07:56:50;;;;;;;8.05;4.38;;;;;;;2.41;100.00;99776.66;5943217;29;20103;-86
2022/04/01 07:59:52;;;;;;;5.82;3.75;;;;;;;2.62;100.00;99777.97;5947650;29;20057;-86
2022/04/01 08:02:56;;;;;;;9.93;4.63;;;;;;;2.84;100.00;99774.19;5956994;29;20043;-86
2022/04/01 08:05:59;;;;;;;5.70;3.83;;;;;;;2.88;100.00;99773.06;5951081;29;20047;-86
2022/04/01 08:09:01;;;;;;;11.75;5.05;;;;;;;2.90;100.00;99768.69;5971561;29;20573;-86
2022/04/01 08:12:04;;;;;;;8.13;4.50;;;;;;;3.03;100.00;99761.94;5974854;29;20071;-86
2022/04/01 08:15:06;;;;;;;7.15;4.00;;;;;;;3.21;100.00;99768.50;5965742;29;20043;-86
2022/04/01 08:18:08;;;;;;;7.00;4.20;;;;;;;3.28;100.00;99773.22;5979556;29;20501;-86
2022/04/01 08:21:10;;;;;;;7.85;3.70;;;;;;;3.23;100.00;99769.25;5958360;29;20520;-87
2022/04/01 08:24:12;;;;;;;7.40;4.05;;;;;;;3.26;100.00;99775.09;5970738;29;20181;-86
2022/04/01 08:27:15;;;;;;;5.50;4.00;;;;;;;3.33;100.00;99771.22;5969727;29;20183;-86
2022/04/01 08:30:16;;;;;;;8.50;3.60;;;;;;;3.67;100.00;99775.91;5955618;29;20047;-87
2022/04/01 08:33:20;;;;;;;5.80;3.55;;;;;;;3.83;100.00;99775.78;5956811;29;20058;-87
2022/04/01 08:36:22;;;;;;;8.70;4.57;;;;;;;3.67;100.00;99772.53;5969483;29;20062;-87
2022/04/01 08:39:24;;;;;;;4.68;4.07;;;;;;;3.64;100.00;99775.28;5966550;29;20179;-87
2022/04/01 08:42:32;;;;;;;5.18;3.70;;;;;;;3.56;99.47;99768.09;5954395;29;20435;-87
2022/04/01 08:45:41;;;;;;;5.15;3.40;;;;;;;3.58;100.00;99766.25;5958077;29;20125;-86
2022/04/01 08:48:43;;;;;;;6.68;4.00;;;;;;;3.69;100.00;99759.63;5960180;29;20039;-86
2022/04/01 08:51:45;;;;;;;6.07;3.58;;;;;;;3.62;100.00;99754.88;5962001;29;20129;-86
2022/04/01 08:54:52;;;;;;;7.75;3.90;;;;;;;3.64;100.00;99770.97;5960951;29;20420;-87
2022/04/01 08:57:54;;;;;;;7.00;3.83;;;;;;;3.52;100.00;99763.25;5965547;29;20062;-87
2022/04/01 09:00:57;;;;;;;7.40;3.38;;;;;;;3.53;100.00;99773.41;5955972;29;20046;-87
2022/04/01 09:04:15;;;;;;;6.65;3.53;;;;;;;3.59;100.00;99784.97;5957589;29;20078;-87
2022/04/01 09:07:17;;;;;;;5.65;3.53;;;;;;;3.78;100.00;99782.91;5963427;29;20432;-88
2022/04/01 09:10:19;;;;;;;6.88;3.70;;;;;;;4.24;100.00;99787.66;5958845;29;20054;-88
2022/04/01 09:13:25;;;;;;;4.75;3.47;;;;;;;4.50;100.00;99790.28;5954516;29;20059;-88
2022/04/01 09:16:41;;;;;;;4.43;3.45;;;;;;;4.54;95.18;99789.16;5957896;29;20053;-87
2022/04/01 09:19:43;;;;;;;5.07;3.30;;;;;;;4.60;97.25;99770.81;5957695;29;20047;-87
2022/04/01 09:22:45;;;;;;;5.47;3.50;;;;;;;4.75;96.84;99772.34;5954972;29;20047;-87
2022/04/01 09:25:49;;;;;;;4.90;3.40;;;;;;;4.91;95.82;99784.13;5954428;29;20050;-87
2022/04/01 09:28:52;;;;;;;5.28;3.60;;;;;;;4.97;97.07;99792.25;5956640;29;20130;-87
2022/04/01 09:32:06;;;;;;;5.93;3.50;;;;;;;4.81;91.88;99794.19;5956047;29;20055;-87
2022/04/01 09:35:11;;;;;;;7.18;3.75;;;;;;;4.70;93.74;99797.47;5944784;29;20058;-88
2022/04/01 09:38:13;;;;;;;5.65;3.78;;;;;;;4.84;94.42;99801.66;5966653;29;20061;-87
2022/04/01 09:41:18;;;;;;;5.10;3.72;;;;;;;4.97;90.21;99794.00;5971418;29;20046;-87
2022/04/01 09:44:40;;;;;;;4.13;3.25;;;;;;;5.29;92.69;99791.81;5954738;29;20084;-87
2022/04/01 09:47:42;;;;;;;7.28;3.63;;;;;;;5.44;88.76;99796.78;5957063;29;20051;-87
2022/04/01 09:50:55;;;;;;;5.68;3.47;;;;;;;5.66;86.53;99793.53;5969148;29;20050;-87
2022/04/01 09:54:02;;;;;;;5.15;3.22;;;;;;;5.76;89.28;99790.25;5975689;29;20046;-87
2022/04/01 09:57:25;;;;;;;5.50;3.35;;;;;;;5.91;84.86;99795.19;5954855;29;20058;-87
2022/04/01 10:00:27;;;;;;;6.53;3.63;;;;;;;6.17;86.21;99801.06;5941193;29;20137;-86
2022/04/01 10:03:29;;;;;;;6.00;3.20;;;;;;;6.28;81.27;99792.56;5957230;29;20058;-86
2022/04/01 10:06:33;;;;;;;5.78;3.70;;;;;;;6.56;84.85;99801.66;5956372;29;20151;-87
2022/04/01 10:09:37;;;;;;;4.45;3.20;;;;;;;6.72;82.89;99803.91;5976977;29;20058;-87
2022/04/01 10:13:06;;;;;;;6.13;3.65;;;;;;;6.55;75.27;99803.41;5943295;29;20734;-87
2022/04/01 10:16:10;;;;;;;5.00;3.60;;;;;;;6.72;77.23;99801.34;5966881;29;20051;-87
2022/04/01 10:19:30;;;;;;;7.03;3.42;;;;;;;6.85;76.29;99799.47;5963035;29;20058;-87
2022/04/01 10:22:35;;;;;;;6.55;3.55;;;;;;;6.88;79.41;99794.09;5970693;29;20054;-88
2022/04/01 10:25:39;;;;;;;7.97;3.28;;;;;;;6.90;77.37;99795.63;5967786;29;20530;-88
2022/04/01 10:28:46;;;;;;;6.05;3.10;;;;;;;6.64;72.55;99797.59;5952843;29;20053;-89
2022/04/01 10:31:55;;;;;;;4.32;3.17;;;;;;;6.74;78.24;99804.63;5957436;29;20051;-88
2022/04/01 10:34:59;;;;;;;7.07;3.22;;;;;;;6.73;73.04;99795.25;5967097;29;20049;-88
2022/04/01 10:38:06;;;;;;;4.97;2.95;;;;;;;6.57;72.15;99803.31;5970158;29;20123;-88
2022/04/01 10:41:12;;;;;;;4.35;2.83;;;;;;;6.69;68.84;99804.97;5970108;29;20580;-88
2022/04/01 10:44:15;;;;;;;3.60;2.55;;;;;;;6.56;68.38;99802.50;5955868;29;20529;-88
2022/04/01 10:47:18;;;;;;;4.10;2.55;;;;;;;6.64;66.79;99805.31;5953788;29;20531;-88
2022/04/01 10:53:45;;;;;;;;;;;;;;;6.73;64.39;99805.53;5955215;29;20071;-89
2022/04/01 10:57:06;;;;;;;5.40;2.60;;;;;;;6.60;60.44;99808.22;5956522;29;19960;-89
2022/04/01 11:00:15;;;;;;;3.13;2.13;;;;;;;6.32;62.95;99805.09;5955112;29;20046;-88
2022/04/01 11:03:22;;;;;;;3.65;2.38;;;;;;;6.35;66.22;99810.00;5954024;29;20161;-88
2022/04/01 11:06:27;;;;;;;2.75;2.40;;;;;;;6.22;61.64;99809.28;5966671;29;20714;-88
2022/04/01 11:09:50;;;;;;;3.45;2.42;;;;;;;6.14;64.18;99807.25;5958042;29;20057;-88
2022/04/01 11:12:52;;;;;;;4.03;2.40;;;;;;;5.98;60.23;99811.84;5969876;29;20277;-88
2022/04/01 11:16:15;;;;;;;3.15;2.35;;;;;;;5.83;62.29;99813.72;5960789;29;20615;-88
2022/04/01 11:19:18;;;;;;;3.70;2.20;;;;;;;5.69;61.17;99799.31;5954331;29;20176;-88
2022/04/01 11:25:42;;;;;;;2.92;2.00;;;;;;;5.47;62.03;99814.56;6250892;28;20196;-87
2022/04/01 11:28:45;;;;;;;4.72;1.67;;;;;;;5.24;57.59;99826.38;6221508;28;20045;-86
2022/04/01 11:31:48;;;;;;;3.97;2.10;;;;;;;5.47;61.21;99823.06;6222661;28;20124;-86
2022/04/01 11:34:57;;;;;;;4.32;2.75;;;;;;;5.67;62.65;99823.44;6218939;28;20050;-86
2022/04/01 11:37:59;;;;;;;7.63;2.78;;;;;;;5.44;61.39;99825.84;6238874;28;20054;-86
2022/04/01 11:41:03;;;;;;;3.05;1.92;;;;;;;5.47;60.51;99829.97;6224071;28;20045;-86
2022/04/01 11:44:06;;;;;;;2.00;1.80;;;;;;;5.62;62.35;99836.59;6221588;28;20419;-86
2022/04/01 11:47:10;;;;;;;3.15;1.80;;;;;;;5.65;59.11;99844.06;6229267;28;20046;-86
2022/04/01 11:50:14;;;;;;;4.70;2.10;;;;;;;5.79;61.88;99851.66;6230154;28;20042;-86
2022/04/01 11:53:41;;;;;;;3.38;2.13;;;;;;;5.98;59.64;99850.38;6228240;28;20042;-86
2022/04/01 11:56:45;;;;;;;2.55;2.00;;;;;;;6.07;58.90;99859.19;6234611;28;20183;-86
2022/04/01 11:59:47;;;;;;;5.00;2.47;;;;;;;6.16;59.10;99861.94;6221904;28;20091;-85
2022/04/01 12:02:51;;;;;;;4.85;2.40;;;;;;;6.18;61.23;99862.63;6217548;28;20053;-85
2022/04/01 12:08:41;;;;;;;6.93;2.53;;;;;;;6.35;61.41;99858.03;6230276;28;20042;-85
2022/04/01 12:09:15;;;;;;;8.05;3.35;;;;;;;6.27;63.38;99848.31;6218675;28;20072;-85
2022/04/01 12:12:27;;;;;;;4.95;2.85;;;;;;;6.34;60.26;99862.34;6216368;28;20487;-85
2022/04/01 12:15:37;;;;;;;6.05;2.88;;;;;;;6.05;60.32;99854.16;6224481;28;20121;-85
2022/04/01 12:18:44;;;;;;;5.97;2.00;;;;;;;5.72;65.34;99855.56;6220469;28;20137;-86
2022/04/01 12:21:54;;;;;;;6.18;1.92;;;;;;;5.40;63.15;99853.47;6224141;28;20056;-86
2022/04/01 12:24:56;;;;;;;3.22;2.00;;;;;;;5.16;64.72;99852.56;6243443;28;20044;-86
2022/04/01 12:28:01;;;;;;;5.60;1.98;;;;;;;4.94;71.52;99858.28;6247142;28;20033;-86
2022/04/01 12:31:05;;;;;;;4.85;2.03;;;;;;;4.86;67.98;99860.56;6245507;28;20119;-86
2022/04/01 12:34:11;;;;;;;3.63;2.00;;;;;;;4.94;69.78;99851.44;6244575;28;20047;-86
2022/04/01 12:37:14;;;;;;;6.82;3.20;;;;;;;5.30;72.53;99844.75;6211601;28;20129;-86
2022/04/01 12:40:16;;;;;;;9.40;2.55;;;;;;;5.33;70.83;99834.28;6236477;28;20482;-86
2022/04/01 12:43:40;;;;;;;4.72;2.45;;;;;;;5.23;69.22;99835.84;6233283;28;20043;-86
2022/04/01 12:46:52;;;;;;;4.00;1.52;;;;;;;4.95;71.66;99850.50;6225555;28;20042;-85
2022/04/01 12:49:54;;;;;;;5.75;2.00;;;;;;;4.80;72.60;99850.72;6232723;28;20033;-85
2022/04/01 12:53:27;;;;;;;6.80;1.90;;;;;;;4.50;71.44;99850.03;6226840;28;20046;-85
2022/04/01 12:56:55;;;;;;;6.32;1.50;;;;;;;4.37;72.13;99843.22;6227727;28;20048;-85
2022/04/01 12:59:58;;;;;;;9.07;3.40;;;;;;;4.31;76.03;99847.03;6232769;28;20033;-85
2022/04/01 13:03:01;;;;;;;7.30;2.95;;;;;;;4.36;78.72;99836.47;6228926;28;20068;-85
2022/04/01 13:06:10;;;;;;;5.88;1.77;;;;;;;4.52;72.31;99848.22;6242213;28;20041;-85
2022/04/01 13:09:14;;;;;;;4.05;1.88;;;;;;;4.43;81.00;99851.34;6226654;28;20041;-85
2022/04/01 13:12:18;;;;;;;6.50;2.15;;;;;;;4.57;86.57;99847.91;6225266;28;20609;-85
2022/04/01 13:15:29;;;;;;;5.80;2.30;;;;;;;4.40;82.11;99853.31;6234863;28;20041;-85
2022/04/01 13:18:32;;;;;;;15.03;2.60;;;;;;;4.13;86.69;99849.00;6224945;28;20042;-85
2022/04/01 13:21:34;;;;;;;8.68;1.90;;;;;;;4.02;91.96;99847.09;6229695;28;20139;-85
2022/04/01 13:24:46;;;;;;;3.38;1.95;;;;;;;3.90;94.81;99855.59;6225882;28;20187;-86
2022/04/01 13:27:57;;;;;;;6.95;2.35;;;;;;;3.79;94.24;99837.50;6224112;28;20112;-85
2022/04/01 13:31:05;;;;;;;5.25;2.53;;;;;;;3.88;99.60;99831.81;6224653;28;20124;-85
2022/04/01 13:34:08;;;;;;;3.53;2.45;;;;;;;3.96;97.40;99839.81;6238432;28;20041;-86
2022/04/01 13:37:11;;;;;;;8.63;3.28;;;;;;;4.02;98.22;99826.63;6220065;28;20125;-86
2022/04/01 13:40:13;;;;;;;4.05;2.70;;;;;;;3.89;96.90;99836.00;6218111;28;20652;-86
2022/04/01 13:43:15;;;;;;;6.43;2.90;;;;;;;3.87;98.29;99827.59;6207056;28;20590;-86
2022/04/01 13:46:19;;;;;;;6.13;2.35;;;;;;;3.90;97.52;99819.75;6224853;28;20038;-86
2022/04/01 13:49:22;;;;;;;5.00;1.70;;;;;;;3.87;92.37;99820.72;6221929;28;20136;-86
2022/04/01 13:52:24;;;;;;;4.80;2.10;;;;;;;3.68;97.99;99810.00;6224574;28;20041;-86
2022/04/01 13:55:26;;;;;;;5.57;2.08;;;;;;;3.82;96.43;99830.44;6243940;28;20760;-86
2022/04/01 13:58:33;;;;;;;4.40;2.50;;;;;;;3.81;91.86;99825.41;6221755;28;20049;-86
2022/04/01 14:01:36;;;;;;;3.92;2.08;;;;;;;3.73;92.83;99831.03;6203779;28;20045;-86
2022/04/01 14:04:38;;;;;;;3.60;2.35;;;;;;;3.70;93.52;99822.69;6217781;28;20045;-85
2022/04/01 14:07:40;;;;;;;4.43;1.77;;;;;;;3.55;89.37;99820.19;6207360;28;20150;-86
2022/04/01 14:10:45;;;;;;;3.90;2.08;;;;;;;3.47;91.67;99819.81;6216756;28;20856;-85
2022/04/01 14:13:47;;;;;;;3.97;2.30;;;;;;;3.36;97.81;99824.78;6223874;28;20049;-85
2022/04/01 14:16:54;;;;;;;12.93;3.67;;;;;;;3.40;100.00;99813.41;6227497;28;20038;-85
2022/04/01 14:19:56;;;;;;;4.30;2.05;;;;;;;3.47;99.70;99813.88;6217781;28;20483;-85
2022/04/01 14:22:58;;;;;;;4.78;2.65;;;;;;;3.39;98.95;99816.91;6223776;28;20068;-85
2022/04/01 14:26:08;;;;;;;6.65;2.60;;;;;;;3.42;97.99;99830.31;6213922;28;20049;-85
2022/04/01 14:32:33;;;;;;;2.78;2.35;;;;;;;3.47;100.00;99819.81;6215098;28;20388;-85
2022/04/01 14:35:35;;;;;;;9.45;2.67;;;;;;;3.44;100.00;99818.25;6210488;28;20060;-85
2022/04/01 14:38:37;;;;;;;4.32;2.25;;;;;;;3.40;100.00;99826.22;6224111;28;20110;-85
2022/04/01 14:41:44;;;;;;;10.30;2.40;;;;;;;3.44;100.00;99825.13;6225888;28;20037;-86
2022/04/01 14:44:46;;;;;;;4.07;2.33;;;;;;;3.39;100.00;99824.56;6221564;28;20391;-85
2022/04/01 14:47:48;;;;;;;6.10;2.65;;;;;;;3.26;100.00;99824.50;6222765;28;20183;-86
2022/04/01 14:50:50;;;;;;;4.60;2.40;;;;;;;3.31;100.00;99832.72;6218359;28;20049;-86
2022/04/01 14:53:57;;;;;;;8.27;2.53;;;;;;;3.35;100.00;99828.22;6221490;28;20037;-86
2022/04/01 14:56:59;;;;;;;4.90;2.40;;;;;;;3.37;100.00;99828.97;6211781;28;20120;-86
2022/04/01 15:00:02;;;;;;;9.40;3.72;;;;;;;3.37;97.28;99823.84;6223122;28;20038;-86
2022/04/01 15:03:04;;;;;;;3.13;2.03;;;;;;;3.45;100.00;99826.75;6237131;28;20421;-86